sensor_id;sensor_type;location;lat;lon;timestamp;pressure;altitude;pressure_sealevel;temperature;humidity
27712;BME280;2377;51.734;8.950;2023-05-27T00:00:09;99067.56;;;10.59;72.60
27712;BME280;2377;51.734;8.950;2023-05-27T00:02:38;99070.13;;;10.59;72.33
27712;BME280;2377;51.734;8.950;2023-05-27T00:05:06;99075.59;;;10.56;72.48
27712;BME280;2377;51.734;8.950;2023-05-27T00:07:34;99072.44;;;10.54;72.57
27712;BME280;2377;51.734;8.950;2023-05-27T00:10:00;99070.03;;;10.52;72.89
27712;BME280;2377;51.734;8.950;2023-05-27T00:12:27;99069.63;;;10.49;72.91
27712;BME280;2377;51.734;8.950;2023-05-27T00:14:54;99068.19;;;10.46;73.00
27712;BME280;2377;51.734;8.950;2023-05-27T00:17:21;99066.44;;;10.47;73.75
27712;BME280;2377;51.734;8.950;2023-05-27T00:19:51;99069.34;;;10.44;74.83
27712;BME280;2377;51.734;8.950;2023-05-27T00:22:19;99071.03;;;10.36;75.28
27712;BME280;2377;51.734;8.950;2023-05-27T00:24:46;99068.31;;;10.38;74.86
27712;BME280;2377;51.734;8.950;2023-05-27T00:27:13;99064.00;;;10.39;74.88
27712;BME280;2377;51.734;8.950;2023-05-27T00:29:40;99071.03;;;10.36;74.90
27712;BME280;2377;51.734;8.950;2023-05-27T00:32:07;99067.88;;;10.34;75.24
27712;BME280;2377;51.734;8.950;2023-05-27T00:34:34;99071.41;;;10.33;75.45
27712;BME280;2377;51.734;8.950;2023-05-27T00:37:04;99068.59;;;10.28;75.94
27712;BME280;2377;51.734;8.950;2023-05-27T00:39:31;99066.53;;;10.24;77.00
27712;BME280;2377;51.734;8.950;2023-05-27T00:41:58;99071.41;;;10.19;77.28
27712;BME280;2377;51.734;8.950;2023-05-27T00:44:25;99063.28;;;10.15;78.55
27712;BME280;2377;51.734;8.950;2023-05-27T00:46:52;99073.50;;;10.15;77.99
27712;BME280;2377;51.734;8.950;2023-05-27T00:49:19;99075.44;;;10.13;77.89
27712;BME280;2377;51.734;8.950;2023-05-27T00:51:46;99063.66;;;10.12;78.55
27712;BME280;2377;51.734;8.950;2023-05-27T00:54:14;99073.09;;;10.11;78.02
27712;BME280;2377;51.734;8.950;2023-05-27T00:56:41;99073.66;;;10.13;77.60
27712;BME280;2377;51.734;8.950;2023-05-27T00:59:09;99072.28;;;10.11;77.81
27712;BME280;2377;51.734;8.950;2023-05-27T01:01:36;99074.22;;;10.09;77.90
27712;BME280;2377;51.734;8.950;2023-05-27T01:04:05;99069.47;;;10.06;77.59
27712;BME280;2377;51.734;8.950;2023-05-27T01:06:44;99071.06;;;10.07;77.89
27712;BME280;2377;51.734;8.950;2023-05-27T01:09:25;99068.22;;;10.02;79.31
27712;BME280;2377;51.734;8.950;2023-05-27T01:12:02;99070.19;;;10.00;78.66
27712;BME280;2377;51.734;8.950;2023-05-27T01:14:34;99076.25;;;9.99;78.16
27712;BME280;2377;51.734;8.950;2023-05-27T01:17:06;99074.47;;;9.99;77.83
27712;BME280;2377;51.734;8.950;2023-05-27T01:19:36;99069.56;;;9.98;78.28
27712;BME280;2377;51.734;8.950;2023-05-27T01:22:06;99062.22;;;9.94;78.61
27712;BME280;2377;51.734;8.950;2023-05-27T01:24:35;99057.94;;;9.95;78.66
27712;BME280;2377;51.734;8.950;2023-05-27T01:27:03;99060.66;;;9.93;79.09
27712;BME280;2377;51.734;8.950;2023-05-27T01:29:30;99060.22;;;9.90;78.72
27712;BME280;2377;51.734;8.950;2023-05-27T01:32:06;99059.41;;;9.89;79.34
27712;BME280;2377;51.734;8.950;2023-05-27T01:34:40;99060.94;;;9.84;79.04
27712;BME280;2377;51.734;8.950;2023-05-27T01:37:13;99052.19;;;9.78;80.70
27712;BME280;2377;51.734;8.950;2023-05-27T01:39:45;99049.75;;;9.70;81.43
27712;BME280;2377;51.734;8.950;2023-05-27T01:42:14;99053.06;;;9.70;81.11
27712;BME280;2377;51.734;8.950;2023-05-27T01:44:42;99055.47;;;9.72;81.36
27712;BME280;2377;51.734;8.950;2023-05-27T01:47:10;99056.41;;;9.71;82.07
27712;BME280;2377;51.734;8.950;2023-05-27T01:49:37;99052.91;;;9.72;81.89
27712;BME280;2377;51.734;8.950;2023-05-27T01:52:04;99055.47;;;9.72;81.94
27712;BME280;2377;51.734;8.950;2023-05-27T01:54:31;99049.75;;;9.70;82.31
27712;BME280;2377;51.734;8.950;2023-05-27T01:57:00;99051.06;;;9.66;83.29
27712;BME280;2377;51.734;8.950;2023-05-27T01:59:28;99046.31;;;9.63;83.01
27712;BME280;2377;51.734;8.950;2023-05-27T02:01:55;99046.31;;;9.63;83.21
27712;BME280;2377;51.734;8.950;2023-05-27T02:04:22;99040.22;;;9.64;83.16
27712;BME280;2377;51.734;8.950;2023-05-27T02:06:49;99049.47;;;9.65;82.53
27712;BME280;2377;51.734;8.950;2023-05-27T02:09:16;99046.91;;;9.65;83.02
27712;BME280;2377;51.734;8.950;2023-05-27T02:11:43;99051.06;;;9.66;82.54
27712;BME280;2377;51.734;8.950;2023-05-27T02:14:11;99050.25;;;9.65;82.57
27712;BME280;2377;51.734;8.950;2023-05-27T02:16:38;99049.81;;;9.62;83.51
27712;BME280;2377;51.734;8.950;2023-05-27T02:19:06;99048.31;;;9.52;84.77
27712;BME280;2377;51.734;8.950;2023-05-27T02:21:33;99042.75;;;9.49;85.06
27712;BME280;2377;51.734;8.950;2023-05-27T02:24:01;99044.06;;;9.45;85.86
27712;BME280;2377;51.734;8.950;2023-05-27T02:26:28;99045.72;;;9.38;86.62
27712;BME280;2377;51.734;8.950;2023-05-27T02:28:55;99046.25;;;9.33;86.95
27712;BME280;2377;51.734;8.950;2023-05-27T02:31:23;99043.44;;;9.28;87.14
27712;BME280;2377;51.734;8.950;2023-05-27T02:33:53;99038.94;;;9.30;87.33
27712;BME280;2377;51.734;8.950;2023-05-27T02:36:20;99040.53;;;9.31;87.82
27712;BME280;2377;51.734;8.950;2023-05-27T02:38:49;99039.13;;;9.28;88.93
27712;BME280;2377;51.734;8.950;2023-05-27T02:41:16;99043.59;;;9.26;88.32
27712;BME280;2377;51.734;8.950;2023-05-27T02:43:43;99033.69;;;9.31;88.19
27712;BME280;2377;51.734;8.950;2023-05-27T02:46:10;99041.16;;;9.33;88.18
27712;BME280;2377;51.734;8.950;2023-05-27T02:48:38;99034.31;;;9.34;87.92
27712;BME280;2377;51.734;8.950;2023-05-27T02:51:06;99037.03;;;9.32;89.10
27712;BME280;2377;51.734;8.950;2023-05-27T02:53:33;99051.34;;;9.33;89.05
27712;BME280;2377;51.734;8.950;2023-05-27T02:56:00;99045.31;;;9.34;89.08
27712;BME280;2377;51.734;8.950;2023-05-27T02:58:26;99043.38;;;9.36;89.02
27712;BME280;2377;51.734;8.950;2023-05-27T03:00:53;99033.31;;;9.35;89.56
27712;BME280;2377;51.734;8.950;2023-05-27T03:03:20;99041.59;;;9.37;89.48
27712;BME280;2377;51.734;8.950;2023-05-27T03:05:50;99037.44;;;9.36;89.53
27712;BME280;2377;51.734;8.950;2023-05-27T03:08:17;99039.84;;;9.37;89.63
27712;BME280;2377;51.734;8.950;2023-05-27T03:10:44;99045.72;;;9.38;89.92
27712;BME280;2377;51.734;8.950;2023-05-27T03:13:11;99039.69;;;9.39;89.75
27712;BME280;2377;51.734;8.950;2023-05-27T03:15:38;99036.50;;;9.37;90.10
27712;BME280;2377;51.734;8.950;2023-05-27T03:18:05;99038.28;;;9.36;89.28
27712;BME280;2377;51.734;8.950;2023-05-27T03:20:32;99031.56;;;9.35;89.70
27712;BME280;2377;51.734;8.950;2023-05-27T03:23:00;99034.31;;;9.34;90.10
27712;BME280;2377;51.734;8.950;2023-05-27T03:25:28;99030.78;;;9.35;90.19
27712;BME280;2377;51.734;8.950;2023-05-27T03:27:55;99027.25;;;9.36;89.90
27712;BME280;2377;51.734;8.950;2023-05-27T03:30:22;99026.47;;;9.35;89.82
27712;BME280;2377;51.734;8.950;2023-05-27T03:32:49;99016.25;;;9.35;89.62
27712;BME280;2377;51.734;8.950;2023-05-27T03:35:16;99023.28;;;9.33;90.18
27712;BME280;2377;51.734;8.950;2023-05-27T03:37:43;99025.22;;;9.31;90.40
27712;BME280;2377;51.734;8.950;2023-05-27T03:40:13;99026.03;;;9.31;90.29
27712;BME280;2377;51.734;8.950;2023-05-27T03:42:40;99028.22;;;9.35;89.84
27712;BME280;2377;51.734;8.950;2023-05-27T03:45:07;99022.50;;;9.32;89.43
27712;BME280;2377;51.734;8.950;2023-05-27T03:47:34;99024.09;;;9.34;90.21
27712;BME280;2377;51.734;8.950;2023-05-27T03:50:02;99024.53;;;9.37;89.81
27712;BME280;2377;51.734;8.950;2023-05-27T03:52:29;99028.66;;;9.38;90.10
27712;BME280;2377;51.734;8.950;2023-05-27T03:54:56;99021.97;;;9.37;90.27
27712;BME280;2377;51.734;8.950;2023-05-27T03:57:24;99028.66;;;9.38;89.88
27712;BME280;2377;51.734;8.950;2023-05-27T03:59:51;99021.63;;;9.40;89.82
27712;BME280;2377;51.734;8.950;2023-05-27T04:02:18;99022.44;;;9.41;90.20
27712;BME280;2377;51.734;8.950;2023-05-27T04:04:45;99014.78;;;9.41;90.55
27712;BME280;2377;51.734;8.950;2023-05-27T04:07:12;99018.91;;;9.42;91.35
27712;BME280;2377;51.734;8.950;2023-05-27T04:09:40;99023.22;;;9.41;91.22
27712;BME280;2377;51.734;8.950;2023-05-27T04:12:08;99021.63;;;9.40;91.60
27712;BME280;2377;51.734;8.950;2023-05-27T04:14:36;99022.59;;;9.39;92.13
27712;BME280;2377;51.734;8.950;2023-05-27T04:17:03;99020.47;;;9.43;92.46
27712;BME280;2377;51.734;8.950;2023-05-27T04:19:30;99023.84;;;9.43;92.19
27712;BME280;2377;51.734;8.950;2023-05-27T04:21:58;99008.34;;;9.45;92.47
27712;BME280;2377;51.734;8.950;2023-05-27T04:24:25;99013.28;;;9.46;92.26
27712;BME280;2377;51.734;8.950;2023-05-27T04:26:52;99017.69;;;9.52;91.71
27712;BME280;2377;51.734;8.950;2023-05-27T04:29:19;99008.53;;;9.58;91.76
27712;BME280;2377;51.734;8.950;2023-05-27T04:31:49;99011.50;;;9.62;91.69
27712;BME280;2377;51.734;8.950;2023-05-27T04:34:17;99009.16;;;9.60;92.27
27712;BME280;2377;51.734;8.950;2023-05-27T04:36:44;99012.50;;;9.61;92.57
27712;BME280;2377;51.734;8.950;2023-05-27T04:39:15;99008.97;;;9.62;93.12
27712;BME280;2377;51.734;8.950;2023-05-27T04:41:42;99004.16;;;9.67;92.68
27712;BME280;2377;51.734;8.950;2023-05-27T04:44:10;99017.34;;;9.70;92.90
27712;BME280;2377;51.734;8.950;2023-05-27T04:46:37;99011.34;;;9.78;93.13
27712;BME280;2377;51.734;8.950;2023-05-27T04:49:07;99012.56;;;9.82;92.91
27712;BME280;2377;51.734;8.950;2023-05-27T04:51:34;99012.22;;;9.85;92.80
27712;BME280;2377;51.734;8.950;2023-05-27T04:54:03;99009.94;;;9.90;92.66
27712;BME280;2377;51.734;8.950;2023-05-27T04:56:31;99014.94;;;9.99;92.36
27712;BME280;2377;51.734;8.950;2023-05-27T04:58:58;99010.69;;;10.06;92.06
27712;BME280;2377;51.734;8.950;2023-05-27T05:01:25;99014.31;;;10.11;91.94
27712;BME280;2377;51.734;8.950;2023-05-27T05:03:53;99012.81;;;10.17;91.59
27712;BME280;2377;51.734;8.950;2023-05-27T05:06:39;99017.78;;;10.25;91.26
27712;BME280;2377;51.734;8.950;2023-05-27T05:09:06;99010.22;;;10.32;91.17
27712;BME280;2377;51.734;8.950;2023-05-27T05:11:34;99018.97;;;10.38;91.48
27712;BME280;2377;51.734;8.950;2023-05-27T05:14:02;99018.97;;;10.38;91.97
27712;BME280;2377;51.734;8.950;2023-05-27T05:16:29;99025.81;;;10.37;92.14
27712;BME280;2377;51.734;8.950;2023-05-27T05:18:55;99026.25;;;10.41;92.60
27712;BME280;2377;51.734;8.950;2023-05-27T05:21:23;99021.41;;;10.46;92.04
27712;BME280;2377;51.734;8.950;2023-05-27T05:23:51;99022.88;;;10.55;91.61
27712;BME280;2377;51.734;8.950;2023-05-27T05:26:18;99032.19;;;10.63;91.46
27712;BME280;2377;51.734;8.950;2023-05-27T05:28:45;99026.72;;;10.66;91.44
27712;BME280;2377;51.734;8.950;2023-05-27T05:31:12;99032.88;;;10.71;91.01
27712;BME280;2377;51.734;8.950;2023-05-27T05:33:39;99029.75;;;10.76;91.02
27712;BME280;2377;51.734;8.950;2023-05-27T05:36:08;99026.91;;;10.86;90.69
27712;BME280;2377;51.734;8.950;2023-05-27T05:38:35;99020.44;;;10.90;90.43
27712;BME280;2377;51.734;8.950;2023-05-27T05:41:04;99017.16;;;10.96;90.01
27712;BME280;2377;51.734;8.950;2023-05-27T05:43:32;99019.56;;;11.04;89.69
27712;BME280;2377;51.734;8.950;2023-05-27T05:45:59;99023.97;;;11.10;89.43
27712;BME280;2377;51.734;8.950;2023-05-27T05:48:27;99024.97;;;11.16;89.21
27712;BME280;2377;51.734;8.950;2023-05-27T05:50:54;99037.84;;;11.23;88.66
27712;BME280;2377;51.734;8.950;2023-05-27T05:53:21;99034.50;;;11.29;88.65
27712;BME280;2377;51.734;8.950;2023-05-27T05:55:48;99033.16;;;11.33;88.67
27712;BME280;2377;51.734;8.950;2023-05-27T05:58:17;99027.50;;;11.37;88.27
27712;BME280;2377;51.734;8.950;2023-05-27T06:00:45;99025.97;;;11.43;87.82
27712;BME280;2377;51.734;8.950;2023-05-27T06:03:12;99026.81;;;11.50;87.89
27712;BME280;2377;51.734;8.950;2023-05-27T06:05:39;99026.81;;;11.57;87.26
27712;BME280;2377;51.734;8.950;2023-05-27T06:08:06;99022.72;;;11.62;86.74
27712;BME280;2377;51.734;8.950;2023-05-27T06:10:33;99029.66;;;11.69;87.06
27712;BME280;2377;51.734;8.950;2023-05-27T06:13:00;99031.47;;;11.75;86.37
27712;BME280;2377;51.734;8.950;2023-05-27T06:15:28;99031.69;;;11.80;86.10
27712;BME280;2377;51.734;8.950;2023-05-27T06:17:56;99035.28;;;11.85;86.19
27712;BME280;2377;51.734;8.950;2023-05-27T06:20:23;99037.09;;;11.92;86.05
27712;BME280;2377;51.734;8.950;2023-05-27T06:22:50;99042.44;;;11.97;85.10
27712;BME280;2377;51.734;8.950;2023-05-27T06:25:17;99040.28;;;12.00;84.34
27712;BME280;2377;51.734;8.950;2023-05-27T06:27:44;99047.22;;;12.07;84.88
27712;BME280;2377;51.734;8.950;2023-05-27T06:30:12;99047.06;;;12.15;84.71
27712;BME280;2377;51.734;8.950;2023-05-27T06:32:41;99045.72;;;12.25;84.49
27712;BME280;2377;51.734;8.950;2023-05-27T06:35:08;99042.38;;;12.32;82.88
27712;BME280;2377;51.734;8.950;2023-05-27T06:37:35;99040.84;;;12.37;82.90
27712;BME280;2377;51.734;8.950;2023-05-27T06:40:03;99047.38;;;12.46;82.95
27712;BME280;2377;51.734;8.950;2023-05-27T06:42:30;99040.88;;;12.57;82.61
27712;BME280;2377;51.734;8.950;2023-05-27T06:44:57;99039.69;;;12.66;82.26
27712;BME280;2377;51.734;8.950;2023-05-27T06:47:24;99041.88;;;12.76;82.24
27712;BME280;2377;51.734;8.950;2023-05-27T06:49:53;99042.88;;;12.88;81.21
27712;BME280;2377;51.734;8.950;2023-05-27T06:52:20;99041.53;;;12.99;79.83
27712;BME280;2377;51.734;8.950;2023-05-27T06:54:47;99029.66;;;13.11;80.17
27712;BME280;2377;51.734;8.950;2023-05-27T06:57:14;99033.66;;;13.27;79.83
27712;BME280;2377;51.734;8.950;2023-05-27T06:59:42;99029.09;;;13.43;78.40
27712;BME280;2377;51.734;8.950;2023-05-27T07:02:09;99027.66;;;13.60;78.78
27712;BME280;2377;51.734;8.950;2023-05-27T07:04:36;99036.69;;;13.83;77.60
27712;BME280;2377;51.734;8.950;2023-05-27T07:07:04;99036.63;;;14.03;77.45
27712;BME280;2377;51.734;8.950;2023-05-27T07:09:31;99021.91;;;14.23;75.87
27712;BME280;2377;51.734;8.950;2023-05-27T07:12:01;99027.16;;;14.42;75.38
27712;BME280;2377;51.734;8.950;2023-05-27T07:14:28;99018.56;;;14.61;74.71
27712;BME280;2377;51.734;8.950;2023-05-27T07:16:56;99023.56;;;14.81;74.00
27712;BME280;2377;51.734;8.950;2023-05-27T07:19:23;99025.41;;;14.99;73.30
27712;BME280;2377;51.734;8.950;2023-05-27T07:21:50;99033.19;;;15.17;71.98
27712;BME280;2377;51.734;8.950;2023-05-27T07:24:19;99025.13;;;15.32;71.83
27712;BME280;2377;51.734;8.950;2023-05-27T07:26:46;99026.72;;;15.52;71.44
27712;BME280;2377;51.734;8.950;2023-05-27T07:29:13;99026.97;;;15.69;70.80
27712;BME280;2377;51.734;8.950;2023-05-27T07:31:40;99022.44;;;15.82;69.41
27712;BME280;2377;51.734;8.950;2023-05-27T07:34:07;99017.59;;;15.93;69.05
27712;BME280;2377;51.734;8.950;2023-05-27T07:36:34;99017.84;;;16.03;68.49
27712;BME280;2377;51.734;8.950;2023-05-27T07:39:02;99023.28;;;16.13;67.33
27712;BME280;2377;51.734;8.950;2023-05-27T07:41:30;99013.81;;;16.25;67.17
27712;BME280;2377;51.734;8.950;2023-05-27T07:43:58;99015.19;;;16.40;66.66
27712;BME280;2377;51.734;8.950;2023-05-27T07:46:26;99019.63;;;16.51;66.44
27712;BME280;2377;51.734;8.950;2023-05-27T07:48:53;99018.84;;;16.62;66.23
27712;BME280;2377;51.734;8.950;2023-05-27T07:51:20;99015.94;;;16.70;65.23
27712;BME280;2377;51.734;8.950;2023-05-27T07:53:48;99007.91;;;16.79;65.21
27712;BME280;2377;51.734;8.950;2023-05-27T07:56:15;99013.75;;;16.86;63.19
27712;BME280;2377;51.734;8.950;2023-05-27T07:58:43;99011.81;;;16.81;62.86
27712;BME280;2377;51.734;8.950;2023-05-27T08:01:11;99005.22;;;16.97;64.79
27712;BME280;2377;51.734;8.950;2023-05-27T08:03:38;99013.34;;;17.13;64.05
27712;BME280;2377;51.734;8.950;2023-05-27T08:06:06;99014.22;;;17.30;64.49
27712;BME280;2377;51.734;8.950;2023-05-27T08:08:33;99004.22;;;17.33;62.07
27712;BME280;2377;51.734;8.950;2023-05-27T08:11:01;99013.31;;;17.36;61.24
27712;BME280;2377;51.734;8.950;2023-05-27T08:13:28;98994.88;;;17.44;62.12
27712;BME280;2377;51.734;8.950;2023-05-27T08:15:56;98994.53;;;17.52;60.42
27712;BME280;2377;51.734;8.950;2023-05-27T08:18:24;98992.69;;;17.65;61.39
27712;BME280;2377;51.734;8.950;2023-05-27T08:20:51;98991.69;;;17.66;60.14
27712;BME280;2377;51.734;8.950;2023-05-27T08:23:18;98982.22;;;17.83;60.51
27712;BME280;2377;51.734;8.950;2023-05-27T08:25:45;98977.22;;;17.93;59.64
27712;BME280;2377;51.734;8.950;2023-05-27T08:28:12;98970.38;;;17.99;58.50
27712;BME280;2377;51.734;8.950;2023-05-27T08:30:39;98971.09;;;18.11;58.46
27712;BME280;2377;51.734;8.950;2023-05-27T08:33:08;98974.75;;;18.27;57.97
27712;BME280;2377;51.734;8.950;2023-05-27T08:35:35;98966.03;;;18.33;57.04
27712;BME280;2377;51.734;8.950;2023-05-27T08:38:02;98959.91;;;18.40;55.51
27712;BME280;2377;51.734;8.950;2023-05-27T08:40:29;98965.72;;;18.47;57.59
27712;BME280;2377;51.734;8.950;2023-05-27T08:42:56;98963.78;;;18.54;55.06
27712;BME280;2377;51.734;8.950;2023-05-27T08:45:24;98967.84;;;18.50;55.29
27712;BME280;2377;51.734;8.950;2023-05-27T08:47:53;98970.56;;;18.60;57.23
27712;BME280;2377;51.734;8.950;2023-05-27T08:50:21;98959.69;;;18.75;56.33
27712;BME280;2377;51.734;8.950;2023-05-27T08:52:54;98968.19;;;18.87;56.13
27712;BME280;2377;51.734;8.950;2023-05-27T08:55:22;98962.34;;;18.97;55.35
27712;BME280;2377;51.734;8.950;2023-05-27T08:57:53;98954.09;;;19.00;55.01
27712;BME280;2377;51.734;8.950;2023-05-27T09:00:21;98944.97;;;18.97;54.62
27712;BME280;2377;51.734;8.950;2023-05-27T09:02:49;98940.06;;;18.96;53.25
27712;BME280;2377;51.734;8.950;2023-05-27T09:05:17;98945.97;;;18.91;54.59
27712;BME280;2377;51.734;8.950;2023-05-27T09:07:45;98943.00;;;19.05;55.60
27712;BME280;2377;51.734;8.950;2023-05-27T09:10:15;98936.31;;;19.09;53.68
27712;BME280;2377;51.734;8.950;2023-05-27T09:12:44;98928.31;;;19.10;54.11
27712;BME280;2377;51.734;8.950;2023-05-27T09:15:11;98935.94;;;19.17;54.23
27712;BME280;2377;51.734;8.950;2023-05-27T09:17:41;98934.72;;;19.25;53.37
27712;BME280;2377;51.734;8.950;2023-05-27T09:20:09;98942.56;;;19.30;54.00
27712;BME280;2377;51.734;8.950;2023-05-27T09:22:38;98937.97;;;19.37;54.13
27712;BME280;2377;51.734;8.950;2023-05-27T09:25:08;98938.09;;;19.47;53.82
27712;BME280;2377;51.734;8.950;2023-05-27T09:27:35;98935.31;;;19.54;52.69
27712;BME280;2377;51.734;8.950;2023-05-27T09:30:08;98935.63;;;19.57;53.02
27712;BME280;2377;51.734;8.950;2023-05-27T09:32:36;98938.03;;;19.64;53.84
27712;BME280;2377;51.734;8.950;2023-05-27T09:35:05;98946.19;;;19.73;52.35
27712;BME280;2377;51.734;8.950;2023-05-27T09:37:33;98942.63;;;19.79;52.77
27712;BME280;2377;51.734;8.950;2023-05-27T09:40:04;98934.84;;;19.79;52.07
27712;BME280;2377;51.734;8.950;2023-05-27T09:42:42;98942.03;;;19.72;51.84
27712;BME280;2377;51.734;8.950;2023-05-27T09:45:12;98941.47;;;19.70;49.53
27712;BME280;2377;51.734;8.950;2023-05-27T09:47:41;98939.81;;;19.63;52.79
27712;BME280;2377;51.734;8.950;2023-05-27T09:50:09;98933.78;;;19.80;52.72
27712;BME280;2377;51.734;8.950;2023-05-27T09:52:38;98933.91;;;19.90;50.84
27712;BME280;2377;51.734;8.950;2023-05-27T09:55:08;98928.81;;;20.00;51.82
27712;BME280;2377;51.734;8.950;2023-05-27T09:57:37;98926.28;;;20.11;51.73
27712;BME280;2377;51.734;8.950;2023-05-27T10:00:09;98929.72;;;20.16;51.71
27712;BME280;2377;51.734;8.950;2023-05-27T10:02:41;98923.28;;;20.24;51.24
27712;BME280;2377;51.734;8.950;2023-05-27T10:05:12;98915.56;;;20.34;51.63
27712;BME280;2377;51.734;8.950;2023-05-27T10:07:41;98923.91;;;20.36;49.78
27712;BME280;2377;51.734;8.950;2023-05-27T10:10:11;98921.84;;;20.38;50.84
27712;BME280;2377;51.734;8.950;2023-05-27T10:12:40;98917.72;;;20.42;51.74
27712;BME280;2377;51.734;8.950;2023-05-27T10:15:20;98909.47;;;20.51;52.26
27712;BME280;2377;51.734;8.950;2023-05-27T10:17:53;98909.03;;;20.59;50.97
27712;BME280;2377;51.734;8.950;2023-05-27T10:20:29;98902.59;;;20.66;50.23
27712;BME280;2377;51.734;8.950;2023-05-27T10:23:09;98902.38;;;20.73;50.98
27712;BME280;2377;51.734;8.950;2023-05-27T10:25:37;98903.97;;;20.79;51.85
27712;BME280;2377;51.734;8.950;2023-05-27T10:28:05;98902.38;;;20.78;49.09
27712;BME280;2377;51.734;8.950;2023-05-27T10:30:44;98894.34;;;20.80;48.67
27712;BME280;2377;51.734;8.950;2023-05-27T10:33:12;98891.75;;;20.80;49.23
27712;BME280;2377;51.734;8.950;2023-05-27T10:35:40;98886.78;;;20.78;47.70
27712;BME280;2377;51.734;8.950;2023-05-27T10:38:17;98892.53;;;20.80;48.27
27712;BME280;2377;51.734;8.950;2023-05-27T10:40:47;98883.72;;;20.81;49.76
27712;BME280;2377;51.734;8.950;2023-05-27T10:43:18;98887.66;;;20.94;49.82
27712;BME280;2377;51.734;8.950;2023-05-27T10:45:46;98882.69;;;20.87;49.35
27712;BME280;2377;51.734;8.950;2023-05-27T10:48:19;98874.88;;;20.82;48.25
27712;BME280;2377;51.734;8.950;2023-05-27T10:50:53;98872.03;;;20.89;47.80
27712;BME280;2377;51.734;8.950;2023-05-27T10:53:21;98868.66;;;20.88;47.59
27712;BME280;2377;51.734;8.950;2023-05-27T10:55:50;98869.72;;;20.93;47.00
27712;BME280;2377;51.734;8.950;2023-05-27T10:58:19;98869.16;;;20.90;47.92
27712;BME280;2377;51.734;8.950;2023-05-27T11:00:52;98864.03;;;20.96;47.55
27712;BME280;2377;51.734;8.950;2023-05-27T11:03:22;98868.19;;;21.07;50.19
27712;BME280;2377;51.734;8.950;2023-05-27T11:06:00;98860.94;;;21.14;49.61
27712;BME280;2377;51.734;8.950;2023-05-27T11:08:28;98865.38;;;21.19;48.47
27712;BME280;2377;51.734;8.950;2023-05-27T11:11:00;98856.25;;;21.11;48.82
27712;BME280;2377;51.734;8.950;2023-05-27T11:13:32;98849.28;;;21.17;49.54
27712;BME280;2377;51.734;8.950;2023-05-27T11:16:04;98853.72;;;21.21;48.66
27712;BME280;2377;51.734;8.950;2023-05-27T11:18:40;98851.34;;;21.20;48.47
27712;BME280;2377;51.734;8.950;2023-05-27T11:21:08;98853.72;;;21.26;48.37
27712;BME280;2377;51.734;8.950;2023-05-27T11:23:38;98845.94;;;21.31;47.29
27712;BME280;2377;51.734;8.950;2023-05-27T11:26:16;98848.53;;;21.37;48.46
27712;BME280;2377;51.734;8.950;2023-05-27T11:28:49;98845.44;;;21.40;49.75
27712;BME280;2377;51.734;8.950;2023-05-27T11:31:19;98841.06;;;21.50;46.95
27712;BME280;2377;51.734;8.950;2023-05-27T11:33:49;98836.09;;;21.49;47.83
27712;BME280;2377;51.734;8.950;2023-05-27T11:36:17;98836.88;;;21.49;47.72
27712;BME280;2377;51.734;8.950;2023-05-27T11:38:51;98826.75;;;21.53;47.24
27712;BME280;2377;51.734;8.950;2023-05-27T11:41:19;98829.09;;;21.60;47.63
27712;BME280;2377;51.734;8.950;2023-05-27T11:43:56;98834.81;;;21.67;46.06
27712;BME280;2377;51.734;8.950;2023-05-27T11:46:34;98827.78;;;21.57;48.65
27712;BME280;2377;51.734;8.950;2023-05-27T11:49:03;98823.13;;;21.64;46.36
27712;BME280;2377;51.734;8.950;2023-05-27T11:51:30;98811.91;;;21.59;45.58
27712;BME280;2377;51.734;8.950;2023-05-27T11:53:59;98810.34;;;21.63;46.51
27712;BME280;2377;51.734;8.950;2023-05-27T11:56:27;98796.56;;;21.67;46.28
27712;BME280;2377;51.734;8.950;2023-05-27T11:58:54;98802.03;;;21.61;45.86
27712;BME280;2377;51.734;8.950;2023-05-27T12:01:23;98806.22;;;21.57;44.84
27712;BME280;2377;51.734;8.950;2023-05-27T12:03:51;98794.75;;;21.63;48.19
27712;BME280;2377;51.734;8.950;2023-05-27T12:06:18;98790.84;;;21.60;46.80
27712;BME280;2377;51.734;8.950;2023-05-27T12:08:45;98782.25;;;21.70;47.77
27712;BME280;2377;51.734;8.950;2023-05-27T12:11:12;98783.28;;;21.74;47.05
27712;BME280;2377;51.734;8.950;2023-05-27T12:13:39;98789.28;;;21.85;47.58
27712;BME280;2377;51.734;8.950;2023-05-27T12:16:06;98777.56;;;21.92;47.40
27712;BME280;2377;51.734;8.950;2023-05-27T12:18:35;98780.41;;;21.96;45.67
27712;BME280;2377;51.734;8.950;2023-05-27T12:21:02;98774.19;;;21.92;46.22
27712;BME280;2377;51.734;8.950;2023-05-27T12:23:29;98765.59;;;21.97;45.42
27712;BME280;2377;51.734;8.950;2023-05-27T12:25:57;98768.44;;;21.95;46.70
27712;BME280;2377;51.734;8.950;2023-05-27T12:28:24;98764.78;;;21.96;47.16
27712;BME280;2377;51.734;8.950;2023-05-27T12:30:52;98769.97;;;22.01;47.23
27712;BME280;2377;51.734;8.950;2023-05-27T12:33:19;98762.47;;;21.94;43.90
27712;BME280;2377;51.734;8.950;2023-05-27T12:35:47;98750.22;;;21.90;46.07
27712;BME280;2377;51.734;8.950;2023-05-27T12:38:14;98749.69;;;21.98;45.12
27712;BME280;2377;51.734;8.950;2023-05-27T12:40:42;98751.50;;;22.03;46.86
27712;BME280;2377;51.734;8.950;2023-05-27T12:43:09;98756.44;;;22.04;44.98
27712;BME280;2377;51.734;8.950;2023-05-27T12:45:36;98755.91;;;22.12;47.89
27712;BME280;2377;51.734;8.950;2023-05-27T12:48:03;98752.25;;;22.19;45.22
27712;BME280;2377;51.734;8.950;2023-05-27T12:50:31;98747.31;;;22.12;44.61
27712;BME280;2377;51.734;8.950;2023-05-27T12:53:00;98736.91;;;22.07;44.23
27712;BME280;2377;51.734;8.950;2023-05-27T12:55:27;98742.66;;;22.04;46.13
27712;BME280;2377;51.734;8.950;2023-05-27T12:57:55;98737.41;;;22.14;47.58
27712;BME280;2377;51.734;8.950;2023-05-27T13:00:23;98733.00;;;22.25;45.69
27712;BME280;2377;51.734;8.950;2023-05-27T13:02:50;98726.97;;;22.34;46.85
27712;BME280;2377;51.734;8.950;2023-05-27T13:05:18;98728.22;;;22.42;45.61
27712;BME280;2377;51.734;8.950;2023-05-27T13:07:54;98723.25;;;22.46;46.29
27712;BME280;2377;51.734;8.950;2023-05-27T13:10:27;98727.69;;;22.45;45.88
27712;BME280;2377;51.734;8.950;2023-05-27T13:12:55;98719.34;;;22.43;44.12
27712;BME280;2377;51.734;8.950;2023-05-27T13:15:23;98705.81;;;22.41;44.11
27712;BME280;2377;51.734;8.950;2023-05-27T13:17:52;98703.00;;;22.32;41.72
27712;BME280;2377;51.734;8.950;2023-05-27T13:20:21;98700.41;;;22.22;44.98